createdAt,value
2023-03-06T15:16:02.543Z,0.00
2023-03-06T15:17:02.534Z,0.00
2023-03-06T15:18:02.554Z,0.00
2023-03-06T15:19:02.539Z,0.00
2023-03-06T15:20:02.550Z,0.00
2023-03-06T15:21:02.530Z,0.00
2023-03-06T15:22:02.532Z,0.00
2023-03-06T15:23:02.549Z,0.00
2023-03-06T15:24:02.550Z,0.00
2023-03-06T15:25:02.543Z,0.58
2023-03-06T15:26:02.535Z,0.01
2023-03-06T15:27:02.528Z,0.00
2023-03-06T15:28:02.551Z,0.11
2023-03-06T15:29:08.691Z,0.33
2023-03-06T15:30:02.573Z,0.00
2023-03-06T15:31:02.565Z,0.38
2023-03-06T15:32:02.642Z,0.00
2023-03-06T15:33:02.544Z,0.20
2023-03-06T15:34:02.547Z,0.02
2023-03-06T15:35:02.594Z,0.52
2023-03-06T15:36:02.649Z,0.61
2023-03-06T15:37:02.544Z,0.46
2023-03-06T15:38:02.566Z,0.00
2023-03-06T15:39:02.581Z,0.04
2023-03-06T15:40:02.581Z,0.33
2023-03-06T15:41:02.577Z,0.92
2023-03-06T15:42:04.023Z,0.88
2023-03-06T15:43:02.546Z,0.10
2023-03-06T15:44:02.571Z,0.00
2023-03-06T15:45:02.610Z,0.17
2023-03-06T15:46:02.653Z,0.14
2023-03-06T15:47:08.653Z,0.10
2023-03-06T15:48:02.592Z,0.00
2023-03-06T15:49:03.142Z,0.00
2023-03-06T15:50:02.716Z,0.00
2023-03-06T15:51:02.747Z,0.03
2023-03-06T15:52:02.736Z,0.16
2023-03-06T15:53:02.733Z,0.17
2023-03-06T15:54:11.306Z,0.06
2023-03-06T15:55:02.909Z,0.00
2023-03-06T15:56:02.775Z,0.00
2023-03-06T15:57:02.754Z,0.00
2023-03-06T15:58:02.745Z,0.07
2023-03-06T15:59:02.773Z,0.00
2023-03-06T16:00:02.775Z,0.00
2023-03-06T16:01:02.787Z,0.00
2023-03-06T16:02:02.782Z,0.00
2023-03-06T16:03:02.829Z,0.00
2023-03-06T16:04:02.822Z,0.00
2023-03-06T16:05:02.838Z,0.20
2023-03-06T16:06:02.848Z,0.22
2023-03-06T16:07:02.872Z,0.25
2023-03-06T16:08:02.849Z,0.06
2023-03-06T16:09:02.878Z,0.01
2023-03-06T16:10:02.881Z,0.00
2023-03-06T16:11:02.963Z,0.00
2023-03-06T16:12:02.902Z,0.00
2023-03-06T16:13:02.928Z,0.00
2023-03-06T16:14:02.937Z,0.00
2023-03-06T16:15:02.943Z,0.00
2023-03-06T16:16:03.000Z,0.00
2023-03-06T16:17:02.981Z,0.00
2023-03-06T16:18:02.986Z,0.00
2023-03-06T16:19:02.991Z,0.00
2023-03-06T16:20:03.005Z,0.00
2023-03-06T16:21:03.014Z,0.01
2023-03-06T16:22:03.019Z,0.03
2023-03-06T16:23:03.052Z,0.00
2023-03-06T16:24:03.073Z,0.00
2023-03-06T16:25:03.048Z,0.00
2023-03-06T16:26:03.065Z,0.00
2023-03-06T16:27:03.074Z,0.00
2023-03-06T16:28:03.107Z,0.00
2023-03-06T16:29:03.134Z,0.00
2023-03-06T16:30:03.124Z,0.30
2023-03-06T16:31:03.194Z,0.01
2023-03-06T16:32:03.282Z,0.00
2023-03-06T16:33:03.155Z,0.00
2023-03-06T16:34:03.161Z,0.00
2023-03-06T16:35:03.179Z,0.00
2023-03-06T16:36:03.188Z,0.00
2023-03-06T16:37:03.201Z,0.01
2023-03-06T16:38:03.229Z,0.00
2023-03-06T16:39:03.201Z,0.00
2023-03-06T16:40:03.287Z,0.00
2023-03-06T16:41:03.246Z,0.00
2023-03-06T16:42:03.267Z,0.00
2023-03-06T16:43:03.302Z,0.00
2023-03-06T16:44:03.283Z,0.00
2023-03-06T16:45:03.289Z,0.00
2023-03-06T16:46:03.325Z,0.00
2023-03-06T16:47:03.328Z,0.00
2023-03-06T16:48:03.355Z,0.00
2023-03-06T16:49:03.334Z,0.00
2023-03-06T16:50:03.458Z,0.00
2023-03-06T16:51:03.354Z,0.00
2023-03-06T16:52:12.136Z,0.00
2023-03-06T16:53:03.391Z,0.00
2023-03-06T16:54:03.375Z,0.00
2023-03-06T16:55:03.387Z,0.00
2023-03-06T16:56:03.399Z,0.00
2023-03-06T16:57:03.382Z,0.00
2023-03-06T16:58:03.392Z,0.00
2023-03-06T16:59:03.380Z,0.00
2023-03-06T17:00:03.397Z,0.02
2023-03-06T17:01:03.412Z,0.04
2023-03-06T17:02:03.372Z,0.22
2023-03-06T17:03:03.406Z,0.00
2023-03-06T17:04:03.422Z,0.00
2023-03-06T17:05:03.400Z,0.00
2023-03-06T17:06:03.378Z,0.01
2023-03-06T17:07:03.390Z,0.00
2023-03-06T17:08:03.386Z,0.03
2023-03-06T17:09:03.413Z,0.38
2023-03-06T17:10:03.415Z,0.01
2023-03-06T17:11:03.412Z,0.00
2023-03-06T17:12:03.398Z,0.00
2023-03-06T17:13:03.397Z,0.00
2023-03-06T17:14:03.436Z,0.07
2023-03-06T17:15:03.417Z,0.24
2023-03-06T17:16:12.195Z,0.05
2023-03-06T17:17:03.392Z,0.00
2023-03-06T17:18:03.548Z,0.00
2023-03-06T17:19:03.413Z,0.00
2023-03-06T17:20:03.411Z,0.01
2023-03-06T17:21:03.416Z,0.00
2023-03-06T17:22:03.408Z,0.00
2023-03-06T17:23:03.415Z,0.00
2023-03-06T17:24:03.481Z,0.00
2023-03-06T17:25:03.419Z,0.00
2023-03-06T17:26:03.431Z,0.00
2023-03-06T17:27:03.437Z,0.00
2023-03-06T17:28:03.431Z,0.00
2023-03-06T17:29:04.517Z,0.00
2023-03-06T17:30:03.433Z,0.00
2023-03-06T17:31:03.460Z,0.00
2023-03-06T17:32:03.455Z,0.00
2023-03-06T17:33:03.422Z,0.00
2023-03-06T17:34:03.452Z,0.00
2023-03-06T17:35:03.459Z,0.00
2023-03-06T17:36:03.440Z,0.00
2023-03-06T17:37:03.467Z,0.00
2023-03-06T17:38:03.404Z,0.00
2023-03-06T17:39:04.229Z,0.00
2023-03-06T17:40:03.427Z,0.01
2023-03-06T17:41:03.432Z,0.00
2023-03-06T17:42:03.604Z,0.27
2023-03-06T17:43:03.445Z,0.04
2023-03-06T17:44:03.450Z,0.01
2023-03-06T17:45:03.543Z,0.04
2023-03-06T17:46:03.514Z,0.06
2023-03-06T17:47:03.482Z,0.00
2023-03-06T17:48:03.527Z,0.00
2023-03-06T17:49:03.534Z,0.00
2023-03-06T17:50:03.547Z,0.00
2023-03-06T17:51:03.526Z,0.00
2023-03-06T17:52:03.568Z,0.00
2023-03-06T17:53:03.578Z,0.16
2023-03-06T17:54:03.586Z,0.03
2023-03-06T17:55:03.591Z,0.00
2023-03-06T17:56:03.591Z,0.00
2023-03-06T17:57:03.719Z,0.00
2023-03-06T17:58:03.591Z,0.10
2023-03-06T17:59:03.727Z,0.00
2023-03-06T18:00:03.657Z,0.02
2023-03-06T18:01:03.669Z,0.16
2023-03-06T18:02:03.750Z,0.01
2023-03-06T18:03:03.670Z,0.00
2023-03-06T18:04:03.685Z,0.00
2023-03-06T18:05:03.743Z,0.00
2023-03-06T18:06:03.716Z,0.00
2023-03-06T18:07:03.724Z,0.00
2023-03-06T18:08:03.798Z,0.00
2023-03-06T18:09:03.775Z,0.00
2023-03-06T18:10:03.748Z,0.00
2023-03-06T18:11:03.756Z,0.00
2023-03-06T18:12:03.785Z,0.00
2023-03-06T18:13:03.806Z,0.00
2023-03-06T18:14:05.463Z,0.00
2023-03-06T18:15:03.826Z,0.00
2023-03-06T18:16:03.902Z,0.00
2023-03-06T18:17:03.849Z,0.00
2023-03-06T18:18:03.862Z,0.00
2023-03-06T18:19:03.877Z,0.00
2023-03-06T18:20:03.841Z,0.00
2023-03-06T18:21:03.911Z,0.00
2023-03-06T18:22:03.910Z,0.00
2023-03-06T18:23:03.914Z,0.00
2023-03-06T18:24:03.905Z,0.00
2023-03-06T18:25:03.938Z,0.00
2023-03-06T18:26:03.952Z,0.00
2023-03-06T18:27:03.998Z,0.00
2023-03-06T18:28:03.972Z,0.00
2023-03-06T18:29:03.993Z,0.00
2023-03-06T18:30:03.980Z,0.00
2023-03-06T18:31:03.995Z,0.00
2023-03-06T18:32:04.082Z,0.00
2023-03-06T18:33:04.020Z,0.00
2023-03-06T18:34:04.058Z,0.00
2023-03-06T18:35:04.057Z,0.00
2023-03-06T18:36:04.064Z,0.00
2023-03-06T18:37:04.081Z,0.00
2023-03-06T18:38:04.088Z,0.00
2023-03-06T18:39:04.128Z,0.00
2023-03-06T18:40:04.114Z,0.00
2023-03-06T18:41:04.117Z,0.00
2023-03-06T18:42:04.129Z,0.00
2023-03-06T18:43:04.155Z,0.00
2023-03-06T18:44:04.165Z,0.00
2023-03-06T18:45:04.186Z,0.00
2023-03-06T18:46:04.228Z,0.00
2023-03-06T18:47:04.191Z,0.00
2023-03-06T18:48:04.204Z,0.00
2023-03-06T18:49:04.235Z,0.00
2023-03-06T18:50:04.257Z,0.00
2023-03-06T18:51:04.269Z,0.00
2023-03-06T18:52:04.269Z,0.00
2023-03-06T18:53:04.253Z,0.00
2023-03-06T18:54:04.299Z,0.00
2023-03-06T18:55:04.294Z,0.00
2023-03-06T18:56:04.309Z,0.00
2023-03-06T18:57:04.306Z,0.00
2023-03-06T18:58:13.048Z,0.00
2023-03-06T18:59:04.356Z,0.01
2023-03-06T19:00:04.328Z,0.18
2023-03-06T19:01:04.413Z,0.00
2023-03-06T19:02:04.349Z,0.00
2023-03-06T19:03:04.353Z,0.00
2023-03-06T19:04:04.386Z,0.00
2023-03-06T19:05:04.409Z,0.00
2023-03-06T19:06:04.440Z,0.00
2023-03-06T19:07:04.341Z,0.00
2023-03-06T19:08:04.465Z,0.00
2023-03-06T19:09:04.335Z,0.00
2023-03-06T19:10:04.342Z,0.01
2023-03-06T19:11:04.350Z,0.00
2023-03-06T19:12:04.362Z,0.00
2023-03-06T19:13:04.368Z,0.02
2023-03-06T19:14:04.389Z,0.29
2023-03-06T19:15:04.340Z,0.00
2023-03-06T19:16:04.340Z,0.08
2023-03-06T19:17:04.363Z,0.15
2023-03-06T19:18:04.362Z,0.03
2023-03-06T19:19:04.380Z,0.07
2023-03-06T19:20:04.387Z,1.25
2023-03-06T19:21:04.579Z,0.37
2023-03-06T19:22:04.369Z,0.00
2023-03-06T19:23:04.366Z,0.00
2023-03-06T19:24:04.352Z,0.00
2023-03-06T19:25:04.358Z,0.00
2023-03-06T19:26:04.341Z,0.03
2023-03-06T19:27:04.373Z,0.01
2023-03-06T19:28:04.406Z,0.01
2023-03-06T19:29:04.356Z,0.01
2023-03-06T19:30:04.395Z,0.24
2023-03-06T19:31:04.373Z,0.37
2023-03-06T19:32:04.459Z,0.01
2023-03-06T19:33:04.408Z,0.01
2023-03-06T19:34:04.348Z,0.06
2023-03-06T19:35:04.374Z,0.46
2023-03-06T19:36:04.390Z,0.03
2023-03-06T19:37:04.371Z,0.01
2023-03-06T19:38:04.399Z,0.01
2023-03-06T19:39:04.414Z,0.00
2023-03-06T19:40:04.356Z,0.67
2023-03-06T19:41:04.381Z,0.13
2023-03-06T19:42:04.360Z,0.00
2023-03-06T19:43:04.403Z,0.00
2023-03-06T19:44:04.408Z,0.00
2023-03-06T19:45:04.377Z,0.00
2023-03-06T19:46:04.567Z,0.00
2023-03-06T19:47:04.366Z,0.27
2023-03-06T19:48:04.436Z,0.69
2023-03-06T19:49:04.388Z,0.02
2023-03-06T19:50:04.437Z,0.30
2023-03-06T19:51:04.386Z,0.00
2023-03-06T19:52:04.380Z,0.00
2023-03-06T19:53:04.381Z,0.00
2023-03-06T19:54:04.434Z,0.34
2023-03-06T19:55:04.406Z,0.00
2023-03-06T19:56:04.383Z,0.00
2023-03-06T19:57:04.371Z,0.00
2023-03-06T19:58:04.387Z,0.00
2023-03-06T19:59:04.397Z,0.00
2023-03-06T20:00:04.414Z,0.06
2023-03-06T20:01:04.434Z,0.23
2023-03-06T20:02:04.386Z,0.00
2023-03-06T20:03:04.403Z,0.00
2023-03-06T20:04:04.402Z,0.00
2023-03-06T20:05:04.393Z,0.00
2023-03-06T20:06:04.395Z,0.00
2023-03-06T20:07:04.419Z,0.00
2023-03-06T20:08:04.464Z,0.12
2023-03-06T20:09:04.556Z,0.00
2023-03-06T20:10:04.395Z,0.00
2023-03-06T20:11:04.399Z,0.00
2023-03-06T20:12:05.556Z,0.00
2023-03-06T20:13:04.523Z,0.00
2023-03-06T20:14:04.549Z,0.00
2023-03-06T20:15:04.543Z,0.20
2023-03-06T20:16:04.575Z,0.42
2023-03-06T20:17:04.591Z,0.23
2023-03-06T20:18:04.585Z,0.10
2023-03-06T20:19:04.595Z,0.41
2023-03-06T20:20:04.582Z,0.09
2023-03-06T20:21:04.630Z,0.01
2023-03-06T20:22:04.621Z,0.00
2023-03-06T20:23:04.616Z,0.00
2023-03-06T20:24:04.686Z,0.00
2023-03-06T20:25:04.691Z,0.00
2023-03-06T20:26:04.679Z,0.00
2023-03-06T20:27:04.661Z,0.00
2023-03-06T20:28:04.667Z,0.01
2023-03-06T20:29:04.691Z,0.00
2023-03-06T20:30:07.573Z,0.00
2023-03-06T20:31:04.715Z,0.00
2023-03-06T20:32:04.781Z,0.00
2023-03-06T20:33:04.734Z,0.00
2023-03-06T20:34:04.725Z,0.00
2023-03-06T20:35:04.755Z,0.00
2023-03-06T20:36:04.761Z,0.00
2023-03-06T20:37:04.740Z,0.00
2023-03-06T20:38:04.743Z,0.00
2023-03-06T20:39:04.762Z,0.00
2023-03-06T20:40:04.853Z,1.16
2023-03-06T20:41:04.744Z,0.12
2023-03-06T20:42:04.770Z,0.80
2023-03-06T20:43:04.739Z,0.02
2023-03-06T20:44:04.749Z,0.00
2023-03-06T20:45:04.758Z,0.00
2023-03-06T20:46:04.792Z,0.12
2023-03-06T20:47:04.745Z,0.01
2023-03-06T20:48:04.726Z,0.18
2023-03-06T20:49:04.760Z,0.00
2023-03-06T20:50:04.744Z,0.40
2023-03-06T20:51:04.723Z,0.14
2023-03-06T20:52:04.736Z,0.22
2023-03-06T20:53:04.728Z,0.00
2023-03-06T20:54:04.727Z,0.01
2023-03-06T20:55:04.755Z,0.00
2023-03-06T20:56:04.748Z,0.00
2023-03-06T20:57:04.730Z,0.01
2023-03-06T20:58:04.720Z,0.06
2023-03-06T20:59:04.742Z,0.23
2023-03-06T21:00:04.740Z,0.22
2023-03-06T21:01:04.748Z,0.42
2023-03-06T21:02:04.827Z,0.18
2023-03-06T21:03:07.091Z,0.14
2023-03-06T21:04:04.745Z,0.00
2023-03-06T21:05:04.788Z,0.02
2023-03-06T21:06:04.729Z,0.00
2023-03-06T21:07:04.789Z,0.00
2023-03-06T21:08:04.789Z,0.18
2023-03-06T21:09:04.710Z,0.14
2023-03-06T21:10:04.772Z,0.00
2023-03-06T21:11:04.730Z,0.00
2023-03-06T21:12:04.743Z,0.00
2023-03-06T21:13:04.750Z,0.00
2023-03-06T21:14:04.738Z,0.01
2023-03-06T21:15:04.769Z,0.25
2023-03-06T21:16:04.751Z,0.00
2023-03-06T21:17:04.765Z,0.00
2023-03-06T21:18:04.744Z,0.14
2023-03-06T21:19:04.750Z,0.00
2023-03-06T21:20:04.754Z,0.00
2023-03-06T21:21:04.900Z,0.00
2023-03-06T21:22:04.779Z,0.00
2023-03-06T21:23:04.782Z,0.32
2023-03-06T21:24:04.756Z,0.29
2023-03-06T21:25:04.791Z,0.00
2023-03-06T21:26:04.775Z,0.00
2023-03-06T21:27:04.746Z,0.30
2023-03-06T21:28:04.782Z,0.80
2023-03-06T21:29:04.765Z,0.10
2023-03-06T21:30:04.756Z,0.35
2023-03-06T21:31:04.845Z,0.01
2023-03-06T21:32:04.829Z,0.00
2023-03-06T21:33:04.763Z,0.03
2023-03-06T21:34:05.462Z,0.05
2023-03-06T21:35:04.779Z,0.00
2023-03-06T21:36:04.809Z,0.00
2023-03-06T21:37:04.777Z,0.00
2023-03-06T21:38:04.811Z,0.00
2023-03-06T21:39:04.846Z,0.15
2023-03-06T21:40:04.944Z,0.01
2023-03-06T21:41:04.839Z,0.00
2023-03-06T21:42:04.850Z,0.00
2023-03-06T21:43:04.858Z,0.00
2023-03-06T21:44:04.859Z,0.00
2023-03-06T21:45:04.882Z,0.00
2023-03-06T21:46:05.094Z,0.00
2023-03-06T21:47:04.915Z,0.00
2023-03-06T21:48:04.919Z,0.00
2023-03-06T21:49:04.972Z,0.44
2023-03-06T21:50:04.964Z,0.41
2023-03-06T21:51:04.990Z,0.33
2023-03-06T21:52:04.990Z,0.00
2023-03-06T21:53:04.989Z,0.00
2023-03-06T21:54:05.014Z,0.00
2023-03-06T21:55:05.051Z,0.00
2023-03-06T21:56:05.074Z,0.00
2023-03-06T21:57:05.092Z,0.07
2023-03-06T21:58:05.233Z,0.00
2023-03-06T21:59:05.055Z,0.01
2023-03-06T22:00:05.063Z,0.25
2023-03-06T22:01:05.210Z,0.22
2023-03-06T22:02:05.104Z,0.00
2023-03-06T22:03:05.105Z,0.20
2023-03-06T22:04:05.308Z,0.63
2023-03-06T22:05:05.113Z,0.33
2023-03-06T22:06:05.218Z,0.00
2023-03-06T22:07:05.200Z,0.00
2023-03-06T22:08:05.144Z,0.42
2023-03-06T22:09:05.197Z,0.38
2023-03-06T22:10:05.165Z,0.01
2023-03-06T22:11:05.225Z,0.46
2023-03-06T22:12:05.237Z,0.04
2023-03-06T22:13:05.199Z,0.67
2023-03-06T22:14:05.220Z,0.01
2023-03-06T22:15:05.239Z,0.00
2023-03-06T22:16:05.494Z,0.00
2023-03-06T22:17:05.255Z,0.00
2023-03-06T22:18:05.324Z,0.00
2023-03-06T22:19:05.327Z,0.00
2023-03-06T22:20:05.323Z,0.00
2023-03-06T22:21:05.321Z,0.00
2023-03-06T22:22:05.363Z,0.02
2023-03-06T22:23:05.348Z,0.00
2023-03-06T22:24:05.360Z,0.00
2023-03-06T22:25:05.353Z,0.00
2023-03-06T22:26:05.433Z,0.26
2023-03-06T22:27:05.404Z,0.24
2023-03-06T22:28:05.387Z,0.09
2023-03-06T22:29:05.447Z,0.07
2023-03-06T22:30:05.502Z,0.00
2023-03-06T22:31:05.466Z,0.00
2023-03-06T22:32:05.612Z,0.01
2023-03-06T22:33:05.436Z,0.14
2023-03-06T22:34:05.452Z,0.57
2023-03-06T22:35:05.526Z,1.05
2023-03-06T22:36:05.534Z,0.40
2023-03-06T22:37:05.625Z,0.01
2023-03-06T22:38:05.509Z,1.07
2023-03-06T22:39:05.497Z,0.97
2023-03-06T22:40:05.527Z,0.21
2023-03-06T22:41:05.562Z,0.52
2023-03-06T22:42:05.584Z,0.87
2023-03-06T22:43:05.557Z,0.56
2023-03-06T22:44:05.585Z,0.71
2023-03-06T22:45:05.594Z,0.57
2023-03-06T22:46:05.691Z,0.03
2023-03-06T22:47:05.626Z,0.03
2023-03-06T22:48:10.790Z,0.35
2023-03-06T22:49:05.621Z,0.03
2023-03-06T22:50:05.640Z,0.51
2023-03-06T22:51:05.651Z,0.57
2023-03-06T22:52:05.744Z,0.02
2023-03-06T22:53:05.631Z,0.72
2023-03-06T22:54:05.673Z,0.35
2023-03-06T22:55:05.650Z,0.63
2023-03-06T22:56:05.636Z,0.97
2023-03-06T22:57:05.626Z,0.17
2023-03-06T22:58:05.620Z,0.10
2023-03-06T22:59:05.656Z,0.66
2023-03-06T23:00:05.652Z,0.98
2023-03-06T23:01:05.723Z,0.86
2023-03-06T23:02:05.649Z,0.61
2023-03-06T23:03:05.623Z,1.23
2023-03-06T23:04:05.644Z,0.86
2023-03-06T23:05:05.626Z,1.05
2023-03-06T23:06:05.659Z,1.10
2023-03-06T23:07:05.697Z,0.51
2023-03-06T23:08:05.672Z,0.87
2023-03-06T23:09:05.659Z,0.76
2023-03-06T23:10:05.652Z,1.39
2023-03-06T23:11:05.653Z,0.67
2023-03-06T23:12:05.680Z,0.28
2023-03-06T23:13:05.625Z,0.41
2023-03-06T23:14:05.686Z,0.77
2023-03-06T23:15:05.641Z,1.01
2023-03-06T23:16:05.751Z,1.04
2023-03-06T23:17:05.699Z,0.28
2023-03-06T23:18:05.675Z,1.18
2023-03-06T23:19:05.664Z,0.44
2023-03-06T23:20:05.639Z,1.44
2023-03-06T23:21:05.646Z,0.97
2023-03-06T23:22:05.659Z,0.47
2023-03-06T23:23:05.655Z,0.96
2023-03-06T23:24:05.666Z,1.03
2023-03-06T23:25:05.648Z,0.85
2023-03-06T23:26:05.662Z,1.27
2023-03-06T23:27:05.649Z,0.92
2023-03-06T23:28:05.655Z,1.08
2023-03-06T23:29:05.669Z,0.40
2023-03-06T23:30:05.657Z,0.33
2023-03-06T23:31:05.746Z,0.65
2023-03-06T23:32:05.695Z,0.64
2023-03-06T23:33:05.703Z,0.73
2023-03-06T23:34:05.664Z,0.37
2023-03-06T23:35:05.685Z,0.11
2023-03-06T23:36:05.678Z,0.10
2023-03-06T23:37:05.933Z,0.10
2023-03-06T23:38:05.667Z,0.00
2023-03-06T23:39:05.662Z,0.81
2023-03-06T23:40:05.664Z,0.99
2023-03-06T23:41:05.710Z,1.27
2023-03-06T23:42:05.660Z,1.22
2023-03-06T23:43:05.689Z,0.23
2023-03-06T23:44:05.684Z,0.71
2023-03-06T23:45:05.708Z,0.36
2023-03-06T23:46:05.701Z,0.62
2023-03-06T23:47:05.716Z,0.48
2023-03-06T23:48:05.680Z,0.86
2023-03-06T23:49:05.672Z,1.02
2023-03-06T23:50:05.680Z,0.54
2023-03-06T23:51:05.687Z,1.29
2023-03-06T23:52:05.677Z,0.56
2023-03-06T23:53:05.689Z,0.02
2023-03-06T23:54:05.712Z,0.86
2023-03-06T23:55:05.675Z,0.92
2023-03-06T23:56:05.686Z,0.34
2023-03-06T23:57:05.683Z,0.73
2023-03-06T23:58:05.717Z,1.03
2023-03-06T23:59:05.690Z,0.54
